Metar Cercanos

 

LEPA - Palma De Mallorc, Spain
Distance from station: ONO 38km
Actualización: 22/10/2018 02:30
Few Clouds
Few Clouds
 Viento del calm
Viento: Calma
Temperatura: 16°C
Rocío: 16°C
Humedad: 100%
Barómetro: 1018 hPa
Clouds: Few Clouds
Visibility: 10 km
Cloud details: Few Clouds 366 m
2018/10/22 00:30 LEPA 220030Z 00000KT 9999 FEW012 16/16 Q1018 NOSIG
LEMH - Mahon/Menorca Is, Spain
Distance from station: ENE 105km
Actualización: 22/10/2018 02:30
Despejado
Despejado
 Viento del ONO
Viento: ONO 7 km/h
Temperatura: 17°C
Rocío: 17°C
Humedad: 100%
Barómetro: 1018 hPa
Clouds: Despejado
Visibility: 8 km
2018/10/22 00:30 LEMH 220030Z AUTO 30004KT 260V330 8000 NCD 17/17 Q1018
 
LEIB - Ibiza/Es Codola, Spain
Distance from station: OSO 165km
Actualización: 22/10/2018 02:30
Despejado
Despejado
 Viento del calm
Viento: Calma
Temperatura: 16°C
Rocío: 15°C
Humedad: 94%
Barómetro: 1018 hPa
Resumen: Despejado
Visibility: greater than 10 km
2018/10/22 00:30 LEIB 220030Z 00000KT CAVOK 16/15 Q1018 NOSIG
LEBL - Barcelona Airpor, Spain
Distance from station: NNO 225km
Actualización: 22/10/2018 02:30
Despejado
Despejado
 Viento del NNO
Viento: NNO 15 km/h
Temperatura: 18°C
Rocío: 15°C
Humedad: 83%
Barómetro: 1018 hPa
Resumen: Despejado
Visibility: greater than 10 km
2018/10/22 00:30 LEBL 220030Z 33008KT CAVOK 18/15 Q1018 NOSIG
 
LEVC - Valencia (civ/Mi, Spain
Distance from station: NO 188km
Actualización: 22/10/2018 02:30
Few Clouds
Few Clouds
 Viento del ONO
Viento: ONO 6 km/h
Temperatura: 16°C
Rocío: 16°C
Humedad: 100%
Barómetro: 1019 hPa
Clouds: Few Clouds
Visibility: 9 km
Cloud details: Few Clouds 610 m
2018/10/22 00:30 LEVC 220030Z 29003KT 9000 FEW020 16/16 Q1019 NOSIG
LEGE - Gerona/Costa Bra, Spain
Distance from station: N 276km
Actualización: 22/10/2018 02:30
Parcialmente nuboso
Parcialmente nuboso
 Viento del varies
Viento: varies 2 km/h
Temperatura: 12°C
Rocío: 12°C
Humedad: 100%
Barómetro: 1018 hPa
Clouds: Parcialmente nuboso
Visibility: 8 km
2018/10/22 00:30 LEGE 220030Z VRB01KT 8000 NSC 12/12 Q1018
 
LEAL - Alicante/El Alte, Spain
Distance from station: OSO 344km
Actualización: 22/10/2018 02:30
Few Clouds
Few Clouds
 Viento del O
Viento: O 11 km/h
Temperatura: 18°C
Rocío: 16°C
Humedad: 88%
Barómetro: 1019 hPa
Clouds: Few Clouds
Visibility: 10 km
Cloud details: Few Clouds 457 m
2018/10/22 00:30 LEAL 220030Z 28006KT 9999 FEW015 18/16 Q1019 NOSIG
LEAM - Almeria Airport, Spain
Distance from station: SSO 56km
Actualización: 22/10/2018 02:30
Despejado
Despejado
 Viento del N
Viento: N 11 km/h
Temperatura: 20°C
Rocío: 15°C
Humedad: 73%
Barómetro: 1019 hPa
Clouds: Despejado
Visibility: 10 km
2018/10/22 00:30 LEAM 220030Z AUTO 01006KT 340V050 9999 NCD 20/15 Q1019
 
LEZG - Zaragoza (mil/Ci, Spain
Distance from station: NO 431km
Actualización: 22/10/2018 02:30
Despejado
Despejado
 Viento del O
Viento: O 22 km/h
Temperatura: 17°C
Rocío: 13°C
Humedad: 77%
Barómetro: 1020 hPa
Resumen: Despejado
Visibility: greater than 10 km
2018/10/22 00:30 LEZG 220030Z 28012KT CAVOK 17/13 Q1020
LEMD - Madrid/Barajas, Spain
Distance from station: ONO 234km
Actualización: 22/10/2018 02:30
Despejado
Despejado
 Viento del N
Viento: N 9 km/h
Temperatura: 13°C
Rocío: 13°C
Humedad: 100%
Barómetro: 1022 hPa
Resumen: Despejado
Visibility: greater than 10 km
2018/10/22 00:30 LEMD 220030Z 36005KT CAVOK 13/13 Q1022 NOSIG
 
LEGR - Granada Airport, Spain
Distance from station: OSO 62km
Actualización: 22/10/2018 02:30
Despejado
Despejado
 Viento del calm
Viento: Calma
Temperatura: 13°C
Rocío: 13°C
Humedad: 100%
Barómetro: 1021 hPa
Clouds: Despejado
Visibility: 10 km
2018/10/22 00:30 LEGR 220030Z AUTO 00000KT 9999 NCD 13/13 Q1021
LEMG - Malaga (civ/Mil), Spain
Distance from station: OSO 227km
Actualización: 22/10/2018 02:30
Parcialmente nuboso
Parcialmente nuboso
 Viento del ONO
Viento: ONO 7 km/h
Temperatura: 18°C
Rocío: 16°C
Humedad: 88%
Barómetro: 1019 hPa
Clouds: Parcialmente nuboso
Visibility: 10 km
Cloud details: Few Clouds 762 m
Parcialmente nuboso 1676 m
2018/10/22 00:30 LEMG 220030Z 30004KT 9999 FEW025 SCT055 18/16 Q1019 NOSIG
 
LEZL - Sevilla (civ/Mil, Spain
Distance from station: S 318km
Actualización: 22/10/2018 02:30
Despejado
Despejado
 Viento del NNE
Viento: NNE 7 km/h
Temperatura: 17°C
Rocío: 16°C
Humedad: 94%
Barómetro: 1019 hPa
Clouds: Despejado
Visibility: 10 km
2018/10/22 00:30 LEZL 220030Z AUTO 02004KT 9999 NCD 17/16 Q1019
LEVT - Vitoria, Spain
Distance from station: NO 226km
Actualización: 22/10/2018 02:30
Mist, Patches of, Niebla, Few clouds
Mist, Patches of, Niebla, Few clouds
 Viento del calm
Viento: Calma
Temperatura: 9°C
Rocío: 9°C
Humedad: 100%
Barómetro: 1024 hPa
Resumen: Mist, Patches of, Niebla
Clouds: Few Clouds
Visibility: 5 km
Cloud details: Few Clouds 305 m
2018/10/22 00:30 LEVT 220030Z 00000KT 4500 BR BCFG FEW010 09/09 Q1024
 
LEBB - Bilbao/Sondica, Spain
Distance from station: NNO 235km
Actualización: 22/10/2018 02:30

 Viento del calm
Viento: Calma
Visibility: 10 km
2018/10/22 00:30 LEBB 220030Z AUTO 00000KT 9999 3300 BKN023/// 16/16 Q1025
LESO - San Sebastian/Fu, Spain
Distance from station: N 231km
Actualización: 22/10/2018 02:30
Cubierto
Cubierto
 Viento del OSO
Viento: OSO 6 km/h
Temperatura: 16°C
Rocío: 15°C
Humedad: 94%
Barómetro: 1024 hPa
Clouds: Cubierto
Visibility: 6 km
Cloud details: Cubierto 30 m
2018/10/22 00:30 LESO 220030Z AUTO 25003KT 210V290 6000 VV001 16/15 Q1024
 
LEVD - Valladolid(Mil/C, Spain
Distance from station: ONO 239km
Actualización: 21/10/2018 21:30
NOT Current
Despejado
Despejado
 Viento del NNE
Viento: NNE 6 km/h
Temperatura: 13°C
Rocío: 6°C
Humedad: 63%
Barómetro: 1022 hPa
Resumen: Despejado
Visibility: greater than 10 km
2018/10/21 19:30 LEVD 211930Z 03003KT 340V050 CAVOK 13/06 Q1022
LESA - Salamanca (civ/M, Spain
Distance from station: ONO 349km
Actualización: 22/10/2018 02:30
Despejado
Despejado
 Viento del calm
Viento: Calma
Temperatura: 10°C
Rocío: 9°C
Humedad: 94%
Barómetro: 1023 hPa
Resumen: Despejado
Visibility: greater than 10 km
2018/10/22 00:30 LESA 220030Z AUTO 00000KT CAVOK 10/09 Q1023
 
LEXJ - Santander/Paraya, Spain
Distance from station: NNO 247km
Actualización: 22/10/2018 02:30
Mist, Cubierto
Mist, Cubierto
 Viento del varies
Viento: varies 4 km/h
Temperatura: 16°C
Rocío: 16°C
Humedad: 100%
Barómetro: 1025 hPa
Resumen: Mist
Clouds: Cubierto
Visibility: 3 km
Cloud details: Cubierto 701 m
2018/10/22 00:30 LEXJ 220030Z AUTO VRB02KT 2700 BR OVC023/// 16/16 Q1025
LEAS - Asturias/Aviles, Spain
Distance from station: NO 214km
Actualización: 22/10/2018 02:30
Mist, Muy nuboso
Mist, Muy nuboso
 Viento del varies
Viento: varies 4 km/h
Temperatura: 16°C
Rocío: 15°C
Humedad: 94%
Barómetro: 1025 hPa
Resumen: Mist
Clouds: Muy nuboso
Visibility: 5 km
Cloud details: Few Clouds 305 m
Muy nuboso 488 m
2018/10/22 00:30 LEAS 220030Z VRB02KT 5000 BR FEW010 BKN016 16/15 Q1025 TEMPO 3000 BR
 
LECO - La Coruna/Alvedr, Spain
Distance from station: ONO 222km
Actualización: 22/10/2018 02:30
Despejado
Despejado
 Viento del varies
Viento: varies 4 km/h
Temperatura: 15°C
Rocío: 13°C
Humedad: 88%
Barómetro: 1024 hPa
Clouds: Despejado
Visibility: 10 km
2018/10/22 00:30 LECO 220030Z AUTO VRB02KT 9999 NCD 15/13 Q1024
LEVX - Vigo/Peinador, Spain
Distance from station: O 214km
Actualización: 22/10/2018 02:30
Despejado
Despejado
 Viento del OSO
Viento: OSO 6 km/h
Temperatura: 18°C
Rocío: 14°C
Humedad: 78%
Barómetro: 1021 hPa
Resumen: Despejado
Visibility: greater than 10 km
2018/10/22 00:30 LEVX 220030Z 25003KT 200V290 CAVOK 18/14 Q1021 NOSIG